sensor_id;sensor_type;location;lat;lon;timestamp;P1;durP1;ratioP1;P2;durP2;ratioP2
58354;SDS011;44160;49.080;19.302;2022-09-03T00:00:01;4.38;;;2.35;;
58354;SDS011;44160;49.080;19.302;2022-09-03T00:02:37;6.38;;;2.40;;
58354;SDS011;44160;49.080;19.302;2022-09-03T00:05:10;3.88;;;2.30;;
58354;SDS011;44160;49.080;19.302;2022-09-03T00:10:24;4.18;;;2.60;;
58354;SDS011;44160;49.080;19.302;2022-09-03T00:12:53;6.70;;;2.35;;
58354;SDS011;44160;49.080;19.302;2022-09-03T00:15:21;5.50;;;2.50;;
58354;SDS011;44160;49.080;19.302;2022-09-03T00:17:54;4.57;;;2.50;;
58354;SDS011;44160;49.080;19.302;2022-09-03T00:20:27;6.78;;;2.20;;
58354;SDS011;44160;49.080;19.302;2022-09-03T00:22:57;4.55;;;2.05;;
58354;SDS011;44160;49.080;19.302;2022-09-03T00:25:32;2.95;;;1.70;;
58354;SDS011;44160;49.080;19.302;2022-09-03T00:27:59;7.80;;;2.38;;
58354;SDS011;44160;49.080;19.302;2022-09-03T00:30:27;3.70;;;2.25;;
58354;SDS011;44160;49.080;19.302;2022-09-03T00:32:58;5.22;;;2.10;;
58354;SDS011;44160;49.080;19.302;2022-09-03T00:35:33;4.63;;;2.20;;
58354;SDS011;44160;49.080;19.302;2022-09-03T00:38:01;3.22;;;2.15;;
58354;SDS011;44160;49.080;19.302;2022-09-03T00:48:31;5.25;;;2.40;;
58354;SDS011;44160;49.080;19.302;2022-09-03T00:56:07;4.18;;;3.05;;
58354;SDS011;44160;49.080;19.302;2022-09-03T01:01:21;3.42;;;2.28;;
58354;SDS011;44160;49.080;19.302;2022-09-03T01:06:24;5.60;;;2.30;;
58354;SDS011;44160;49.080;19.302;2022-09-03T01:09:15;3.60;;;2.25;;
58354;SDS011;44160;49.080;19.302;2022-09-03T01:21:40;5.95;;;2.65;;
58354;SDS011;44160;49.080;19.302;2022-09-03T01:24:25;4.82;;;2.13;;
58354;SDS011;44160;49.080;19.302;2022-09-03T01:29:46;4.00;;;2.60;;
58354;SDS011;44160;49.080;19.302;2022-09-03T01:32:21;6.82;;;2.63;;
58354;SDS011;44160;49.080;19.302;2022-09-03T01:37:47;8.60;;;2.28;;
58354;SDS011;44160;49.080;19.302;2022-09-03T01:42:46;3.28;;;2.17;;
58354;SDS011;44160;49.080;19.302;2022-09-03T01:56:10;3.50;;;1.95;;
58354;SDS011;44160;49.080;19.302;2022-09-03T01:58:48;4.35;;;2.30;;
58354;SDS011;44160;49.080;19.302;2022-09-03T02:01:25;4.35;;;2.28;;
58354;SDS011;44160;49.080;19.302;2022-09-03T02:03:54;6.38;;;2.38;;
58354;SDS011;44160;49.080;19.302;2022-09-03T02:06:27;3.03;;;2.30;;
58354;SDS011;44160;49.080;19.302;2022-09-03T02:11:21;3.47;;;2.35;;
58354;SDS011;44160;49.080;19.302;2022-09-03T02:13:48;5.05;;;2.88;;
58354;SDS011;44160;49.080;19.302;2022-09-03T02:16:17;5.97;;;2.85;;
58354;SDS011;44160;49.080;19.302;2022-09-03T02:18:55;6.57;;;2.90;;
58354;SDS011;44160;49.080;19.302;2022-09-03T02:21:23;3.20;;;2.33;;
58354;SDS011;44160;49.080;19.302;2022-09-03T02:23:50;9.27;;;2.63;;
58354;SDS011;44160;49.080;19.302;2022-09-03T02:26:18;6.55;;;2.63;;
58354;SDS011;44160;49.080;19.302;2022-09-03T02:28:44;4.70;;;2.70;;
58354;SDS011;44160;49.080;19.302;2022-09-03T02:31:10;8.50;;;2.90;;
58354;SDS011;44160;49.080;19.302;2022-09-03T02:33:37;5.13;;;3.13;;
58354;SDS011;44160;49.080;19.302;2022-09-03T02:36:05;4.13;;;2.47;;
58354;SDS011;44160;49.080;19.302;2022-09-03T02:38:31;5.53;;;2.40;;
58354;SDS011;44160;49.080;19.302;2022-09-03T02:40:58;5.65;;;3.10;;
58354;SDS011;44160;49.080;19.302;2022-09-03T02:46:11;3.85;;;2.70;;
58354;SDS011;44160;49.080;19.302;2022-09-03T02:48:39;5.75;;;2.75;;
58354;SDS011;44160;49.080;19.302;2022-09-03T02:51:05;7.55;;;2.60;;
58354;SDS011;44160;49.080;19.302;2022-09-03T02:53:31;4.38;;;2.38;;
58354;SDS011;44160;49.080;19.302;2022-09-03T02:56:00;3.45;;;2.50;;
58354;SDS011;44160;49.080;19.302;2022-09-03T02:58:27;5.40;;;2.67;;
58354;SDS011;44160;49.080;19.302;2022-09-03T03:00:53;4.47;;;2.30;;
58354;SDS011;44160;49.080;19.302;2022-09-03T03:03:19;5.38;;;2.53;;
58354;SDS011;44160;49.080;19.302;2022-09-03T03:05:46;3.75;;;2.50;;
58354;SDS011;44160;49.080;19.302;2022-09-03T03:08:13;4.13;;;2.78;;
58354;SDS011;44160;49.080;19.302;2022-09-03T03:10:41;4.97;;;2.42;;
58354;SDS011;44160;49.080;19.302;2022-09-03T03:13:10;5.70;;;2.97;;
58354;SDS011;44160;49.080;19.302;2022-09-03T03:15:36;7.55;;;2.50;;
58354;SDS011;44160;49.080;19.302;2022-09-03T03:18:02;4.45;;;2.35;;
58354;SDS011;44160;49.080;19.302;2022-09-03T03:20:29;5.78;;;2.28;;
58354;SDS011;44160;49.080;19.302;2022-09-03T03:22:55;5.13;;;2.90;;
58354;SDS011;44160;49.080;19.302;2022-09-03T03:25:21;3.55;;;2.70;;
58354;SDS011;44160;49.080;19.302;2022-09-03T03:27:47;5.25;;;2.38;;
58354;SDS011;44160;49.080;19.302;2022-09-03T03:30:13;4.75;;;2.63;;
58354;SDS011;44160;49.080;19.302;2022-09-03T03:32:39;4.85;;;2.67;;
58354;SDS011;44160;49.080;19.302;2022-09-03T03:35:05;3.83;;;2.10;;
58354;SDS011;44160;49.080;19.302;2022-09-03T03:37:31;4.82;;;2.33;;
58354;SDS011;44160;49.080;19.302;2022-09-03T03:39:59;4.35;;;2.67;;
58354;SDS011;44160;49.080;19.302;2022-09-03T03:42:25;4.55;;;2.63;;
58354;SDS011;44160;49.080;19.302;2022-09-03T03:44:51;3.47;;;2.25;;
58354;SDS011;44160;49.080;19.302;2022-09-03T03:47:17;3.05;;;2.33;;
58354;SDS011;44160;49.080;19.302;2022-09-03T03:49:43;4.07;;;2.55;;
58354;SDS011;44160;49.080;19.302;2022-09-03T03:52:09;4.00;;;2.65;;
58354;SDS011;44160;49.080;19.302;2022-09-03T03:54:35;5.95;;;2.85;;
58354;SDS011;44160;49.080;19.302;2022-09-03T03:57:01;5.05;;;2.75;;
58354;SDS011;44160;49.080;19.302;2022-09-03T03:59:27;4.47;;;2.58;;
58354;SDS011;44160;49.080;19.302;2022-09-03T04:01:53;4.93;;;2.67;;
58354;SDS011;44160;49.080;19.302;2022-09-03T04:04:20;4.03;;;2.50;;
58354;SDS011;44160;49.080;19.302;2022-09-03T04:06:46;3.78;;;2.55;;
58354;SDS011;44160;49.080;19.302;2022-09-03T04:09:12;4.60;;;2.50;;
58354;SDS011;44160;49.080;19.302;2022-09-03T04:11:38;7.57;;;2.72;;
58354;SDS011;44160;49.080;19.302;2022-09-03T04:14:04;5.50;;;2.60;;
58354;SDS011;44160;49.080;19.302;2022-09-03T04:16:30;4.72;;;2.67;;
58354;SDS011;44160;49.080;19.302;2022-09-03T04:18:56;6.57;;;3.13;;
58354;SDS011;44160;49.080;19.302;2022-09-03T04:21:25;4.25;;;2.85;;
58354;SDS011;44160;49.080;19.302;2022-09-03T04:23:52;8.88;;;3.03;;
58354;SDS011;44160;49.080;19.302;2022-09-03T04:26:19;3.60;;;2.53;;
58354;SDS011;44160;49.080;19.302;2022-09-03T04:28:45;5.97;;;2.67;;
58354;SDS011;44160;49.080;19.302;2022-09-03T04:31:12;7.07;;;2.85;;
58354;SDS011;44160;49.080;19.302;2022-09-03T04:33:39;4.10;;;2.33;;
58354;SDS011;44160;49.080;19.302;2022-09-03T04:36:12;5.80;;;3.13;;
58354;SDS011;44160;49.080;19.302;2022-09-03T04:38:39;3.53;;;2.10;;
58354;SDS011;44160;49.080;19.302;2022-09-03T04:41:06;4.78;;;2.78;;
58354;SDS011;44160;49.080;19.302;2022-09-03T04:43:32;9.48;;;2.72;;
58354;SDS011;44160;49.080;19.302;2022-09-03T04:45:59;5.78;;;2.28;;
58354;SDS011;44160;49.080;19.302;2022-09-03T04:48:25;3.58;;;2.33;;
58354;SDS011;44160;49.080;19.302;2022-09-03T04:50:52;3.47;;;2.50;;
58354;SDS011;44160;49.080;19.302;2022-09-03T04:53:19;3.70;;;2.90;;
58354;SDS011;44160;49.080;19.302;2022-09-03T04:55:45;4.53;;;2.53;;
58354;SDS011;44160;49.080;19.302;2022-09-03T04:58:11;4.00;;;2.33;;
58354;SDS011;44160;49.080;19.302;2022-09-03T05:00:37;4.32;;;3.33;;
58354;SDS011;44160;49.080;19.302;2022-09-03T05:03:03;6.00;;;2.85;;
58354;SDS011;44160;49.080;19.302;2022-09-03T05:05:30;12.60;;;2.95;;
58354;SDS011;44160;49.080;19.302;2022-09-03T05:07:58;4.93;;;2.80;;
58354;SDS011;44160;49.080;19.302;2022-09-03T05:10:25;4.18;;;2.53;;
58354;SDS011;44160;49.080;19.302;2022-09-03T05:12:59;6.65;;;2.65;;
58354;SDS011;44160;49.080;19.302;2022-09-03T05:15:26;4.80;;;2.50;;
58354;SDS011;44160;49.080;19.302;2022-09-03T05:17:56;4.68;;;2.70;;
58354;SDS011;44160;49.080;19.302;2022-09-03T05:20:22;5.68;;;2.95;;
58354;SDS011;44160;49.080;19.302;2022-09-03T05:22:50;5.20;;;2.60;;
58354;SDS011;44160;49.080;19.302;2022-09-03T05:25:17;4.90;;;2.78;;
58354;SDS011;44160;49.080;19.302;2022-09-03T05:27:44;5.10;;;2.85;;
58354;SDS011;44160;49.080;19.302;2022-09-03T05:30:10;5.68;;;2.63;;
58354;SDS011;44160;49.080;19.302;2022-09-03T05:32:37;5.15;;;2.63;;
58354;SDS011;44160;49.080;19.302;2022-09-03T05:35:03;8.93;;;3.35;;
58354;SDS011;44160;49.080;19.302;2022-09-03T05:37:29;2.72;;;2.40;;
58354;SDS011;44160;49.080;19.302;2022-09-03T05:39:55;6.75;;;2.72;;
58354;SDS011;44160;49.080;19.302;2022-09-03T05:42:21;5.40;;;2.85;;
58354;SDS011;44160;49.080;19.302;2022-09-03T05:44:47;4.30;;;2.88;;
58354;SDS011;44160;49.080;19.302;2022-09-03T05:47:14;5.68;;;2.95;;
58354;SDS011;44160;49.080;19.302;2022-09-03T05:49:41;8.60;;;3.50;;
58354;SDS011;44160;49.080;19.302;2022-09-03T05:52:07;9.77;;;4.45;;
58354;SDS011;44160;49.080;19.302;2022-09-03T05:54:34;18.05;;;7.47;;
58354;SDS011;44160;49.080;19.302;2022-09-03T05:57:00;15.20;;;8.30;;
58354;SDS011;44160;49.080;19.302;2022-09-03T05:59:26;12.57;;;9.07;;
58354;SDS011;44160;49.080;19.302;2022-09-03T06:01:52;10.85;;;8.85;;
58354;SDS011;44160;49.080;19.302;2022-09-03T06:04:18;12.77;;;9.32;;
58354;SDS011;44160;49.080;19.302;2022-09-03T06:06:45;15.25;;;9.52;;
58354;SDS011;44160;49.080;19.302;2022-09-03T06:09:13;13.77;;;9.38;;
58354;SDS011;44160;49.080;19.302;2022-09-03T06:11:40;16.15;;;11.30;;
58354;SDS011;44160;49.080;19.302;2022-09-03T06:14:07;14.52;;;10.88;;
58354;SDS011;44160;49.080;19.302;2022-09-03T06:16:37;13.90;;;10.43;;
58354;SDS011;44160;49.080;19.302;2022-09-03T06:19:04;13.40;;;11.20;;
58354;SDS011;44160;49.080;19.302;2022-09-03T06:21:32;18.15;;;13.18;;
58354;SDS011;44160;49.080;19.302;2022-09-03T06:23:59;16.52;;;13.45;;
58354;SDS011;44160;49.080;19.302;2022-09-03T06:26:25;17.05;;;12.48;;
58354;SDS011;44160;49.080;19.302;2022-09-03T06:28:52;28.17;;;10.68;;
58354;SDS011;44160;49.080;19.302;2022-09-03T06:31:20;19.63;;;12.55;;
58354;SDS011;44160;49.080;19.302;2022-09-03T06:33:47;15.38;;;12.32;;
58354;SDS011;44160;49.080;19.302;2022-09-03T06:36:16;17.55;;;12.50;;
58354;SDS011;44160;49.080;19.302;2022-09-03T06:38:42;12.80;;;9.25;;
58354;SDS011;44160;49.080;19.302;2022-09-03T06:41:13;11.50;;;9.38;;
58354;SDS011;44160;49.080;19.302;2022-09-03T06:43:45;15.43;;;10.32;;
58354;SDS011;44160;49.080;19.302;2022-09-03T06:46:19;17.37;;;11.37;;
58354;SDS011;44160;49.080;19.302;2022-09-03T06:48:45;13.85;;;10.13;;
58354;SDS011;44160;49.080;19.302;2022-09-03T06:53:38;14.80;;;10.73;;
58354;SDS011;44160;49.080;19.302;2022-09-03T06:56:05;12.48;;;9.15;;
58354;SDS011;44160;49.080;19.302;2022-09-03T06:58:33;14.18;;;9.43;;
58354;SDS011;44160;49.080;19.302;2022-09-03T07:01:03;9.68;;;7.55;;
58354;SDS011;44160;49.080;19.302;2022-09-03T07:03:33;11.57;;;8.07;;
58354;SDS011;44160;49.080;19.302;2022-09-03T07:06:00;9.05;;;7.63;;
58354;SDS011;44160;49.080;19.302;2022-09-03T07:08:26;10.68;;;8.48;;
58354;SDS011;44160;49.080;19.302;2022-09-03T07:10:52;12.38;;;8.05;;
58354;SDS011;44160;49.080;19.302;2022-09-03T07:13:22;11.65;;;8.73;;
58354;SDS011;44160;49.080;19.302;2022-09-03T07:15:57;10.57;;;6.93;;
58354;SDS011;44160;49.080;19.302;2022-09-03T07:18:24;9.77;;;7.15;;
58354;SDS011;44160;49.080;19.302;2022-09-03T07:20:51;9.30;;;6.75;;
58354;SDS011;44160;49.080;19.302;2022-09-03T07:23:17;9.70;;;7.00;;
58354;SDS011;44160;49.080;19.302;2022-09-03T07:25:43;12.35;;;8.90;;
58354;SDS011;44160;49.080;19.302;2022-09-03T07:28:16;8.90;;;7.22;;
58354;SDS011;44160;49.080;19.302;2022-09-03T07:30:44;14.82;;;8.15;;
58354;SDS011;44160;49.080;19.302;2022-09-03T07:33:10;10.18;;;9.02;;
58354;SDS011;44160;49.080;19.302;2022-09-03T07:35:39;11.02;;;8.07;;
58354;SDS011;44160;49.080;19.302;2022-09-03T07:38:25;10.93;;;7.57;;
58354;SDS011;44160;49.080;19.302;2022-09-03T07:40:58;9.15;;;7.78;;
58354;SDS011;44160;49.080;19.302;2022-09-03T07:43:28;9.98;;;7.13;;
58354;SDS011;44160;49.080;19.302;2022-09-03T07:45:55;7.85;;;6.50;;
58354;SDS011;44160;49.080;19.302;2022-09-03T07:48:22;8.60;;;6.28;;
58354;SDS011;44160;49.080;19.302;2022-09-03T07:50:48;10.50;;;6.03;;
58354;SDS011;44160;49.080;19.302;2022-09-03T07:53:17;7.28;;;5.93;;
58354;SDS011;44160;49.080;19.302;2022-09-03T07:55:46;9.30;;;6.18;;
58354;SDS011;44160;49.080;19.302;2022-09-03T07:58:13;7.47;;;4.90;;
58354;SDS011;44160;49.080;19.302;2022-09-03T08:00:39;5.47;;;4.60;;
58354;SDS011;44160;49.080;19.302;2022-09-03T08:03:06;8.15;;;5.18;;
58354;SDS011;44160;49.080;19.302;2022-09-03T08:05:33;7.35;;;5.07;;
58354;SDS011;44160;49.080;19.302;2022-09-03T08:08:00;5.10;;;4.20;;
58354;SDS011;44160;49.080;19.302;2022-09-03T08:10:26;5.85;;;4.22;;
58354;SDS011;44160;49.080;19.302;2022-09-03T08:12:54;5.40;;;4.25;;
58354;SDS011;44160;49.080;19.302;2022-09-03T08:15:20;5.43;;;3.78;;
58354;SDS011;44160;49.080;19.302;2022-09-03T08:17:46;5.35;;;3.90;;
58354;SDS011;44160;49.080;19.302;2022-09-03T08:20:13;6.75;;;4.25;;
58354;SDS011;44160;49.080;19.302;2022-09-03T08:22:40;6.18;;;3.97;;
58354;SDS011;44160;49.080;19.302;2022-09-03T08:25:06;5.82;;;4.07;;
58354;SDS011;44160;49.080;19.302;2022-09-03T08:27:32;6.22;;;3.85;;
58354;SDS011;44160;49.080;19.302;2022-09-03T08:29:59;7.00;;;4.00;;
58354;SDS011;44160;49.080;19.302;2022-09-03T08:32:25;9.05;;;3.90;;
58354;SDS011;44160;49.080;19.302;2022-09-03T08:34:51;7.38;;;4.28;;
58354;SDS011;44160;49.080;19.302;2022-09-03T08:37:17;6.63;;;3.47;;
58354;SDS011;44160;49.080;19.302;2022-09-03T08:39:44;5.57;;;3.78;;
58354;SDS011;44160;49.080;19.302;2022-09-03T08:42:32;6.93;;;4.05;;
58354;SDS011;44160;49.080;19.302;2022-09-03T08:45:00;5.75;;;3.08;;
58354;SDS011;44160;49.080;19.302;2022-09-03T08:52:45;10.32;;;3.67;;
58354;SDS011;44160;49.080;19.302;2022-09-03T08:57:49;8.50;;;3.50;;
58354;SDS011;44160;49.080;19.302;2022-09-03T09:00:16;7.05;;;3.95;;
58354;SDS011;44160;49.080;19.302;2022-09-03T09:02:58;5.97;;;3.63;;
58354;SDS011;44160;49.080;19.302;2022-09-03T09:06:02;9.82;;;3.72;;
58354;SDS011;44160;49.080;19.302;2022-09-03T09:08:22;4.65;;;3.35;;
58354;SDS011;44160;49.080;19.302;2022-09-03T09:11:11;6.85;;;3.78;;
58354;SDS011;44160;49.080;19.302;2022-09-03T09:13:42;6.82;;;3.05;;
58354;SDS011;44160;49.080;19.302;2022-09-03T09:21:10;4.53;;;3.22;;
58354;SDS011;44160;49.080;19.302;2022-09-03T09:23:48;8.37;;;3.17;;
58354;SDS011;44160;49.080;19.302;2022-09-03T09:26:18;10.27;;;4.03;;
58354;SDS011;44160;49.080;19.302;2022-09-03T09:28:46;7.40;;;3.38;;
58354;SDS011;44160;49.080;19.302;2022-09-03T09:31:15;6.18;;;3.30;;
58354;SDS011;44160;49.080;19.302;2022-09-03T09:33:43;4.68;;;2.92;;
58354;SDS011;44160;49.080;19.302;2022-09-03T09:36:11;8.27;;;3.55;;
58354;SDS011;44160;49.080;19.302;2022-09-03T09:38:40;5.63;;;2.90;;
58354;SDS011;44160;49.080;19.302;2022-09-03T09:41:16;4.57;;;2.70;;
58354;SDS011;44160;49.080;19.302;2022-09-03T09:43:58;7.15;;;2.97;;
58354;SDS011;44160;49.080;19.302;2022-09-03T09:46:26;8.25;;;2.65;;
58354;SDS011;44160;49.080;19.302;2022-09-03T09:48:55;5.63;;;3.15;;
58354;SDS011;44160;49.080;19.302;2022-09-03T09:51:28;5.50;;;3.15;;
58354;SDS011;44160;49.080;19.302;2022-09-03T09:56:34;4.30;;;2.40;;
58354;SDS011;44160;49.080;19.302;2022-09-03T09:59:01;5.28;;;2.50;;
58354;SDS011;44160;49.080;19.302;2022-09-03T10:01:27;3.40;;;2.35;;
58354;SDS011;44160;49.080;19.302;2022-09-03T10:03:56;4.45;;;2.42;;
58354;SDS011;44160;49.080;19.302;2022-09-03T10:06:27;3.28;;;2.13;;
58354;SDS011;44160;49.080;19.302;2022-09-03T10:09:13;4.97;;;1.83;;
58354;SDS011;44160;49.080;19.302;2022-09-03T10:14:52;2.70;;;2.03;;
58354;SDS011;44160;49.080;19.302;2022-09-03T10:19:57;1.55;;;1.10;;
58354;SDS011;44160;49.080;19.302;2022-09-03T10:22:45;3.10;;;1.30;;
58354;SDS011;44160;49.080;19.302;2022-09-03T10:25:15;2.25;;;1.38;;
58354;SDS011;44160;49.080;19.302;2022-09-03T10:27:43;3.45;;;1.40;;
58354;SDS011;44160;49.080;19.302;2022-09-03T10:30:10;3.63;;;1.10;;
58354;SDS011;44160;49.080;19.302;2022-09-03T10:35:50;4.75;;;1.38;;
58354;SDS011;44160;49.080;19.302;2022-09-03T10:38:27;2.22;;;1.30;;
58354;SDS011;44160;49.080;19.302;2022-09-03T10:51:27;2.70;;;0.90;;
58354;SDS011;44160;49.080;19.302;2022-09-03T11:04:21;2.47;;;1.23;;
58354;SDS011;44160;49.080;19.302;2022-09-03T11:07:00;2.65;;;1.20;;
58354;SDS011;44160;49.080;19.302;2022-09-03T11:09:34;2.53;;;1.05;;
58354;SDS011;44160;49.080;19.302;2022-09-03T11:12:05;3.30;;;1.13;;
58354;SDS011;44160;49.080;19.302;2022-09-03T11:14:37;1.33;;;1.10;;
58354;SDS011;44160;49.080;19.302;2022-09-03T11:17:15;2.50;;;1.45;;
58354;SDS011;44160;49.080;19.302;2022-09-03T11:19:47;3.75;;;1.30;;
58354;SDS011;44160;49.080;19.302;2022-09-03T11:22:15;4.15;;;1.17;;
58354;SDS011;44160;49.080;19.302;2022-09-03T11:24:42;1.33;;;1.02;;
58354;SDS011;44160;49.080;19.302;2022-09-03T11:27:28;2.08;;;1.08;;
58354;SDS011;44160;49.080;19.302;2022-09-03T11:35:44;2.75;;;1.25;;
58354;SDS011;44160;49.080;19.302;2022-09-03T11:43:45;1.90;;;1.10;;
58354;SDS011;44160;49.080;19.302;2022-09-03T11:48:47;2.17;;;1.17;;
58354;SDS011;44160;49.080;19.302;2022-09-03T11:53:58;1.95;;;1.10;;
58354;SDS011;44160;49.080;19.302;2022-09-03T11:56:24;2.47;;;1.38;;
58354;SDS011;44160;49.080;19.302;2022-09-03T11:59:01;1.98;;;1.30;;
58354;SDS011;44160;49.080;19.302;2022-09-03T12:01:28;2.47;;;1.60;;
58354;SDS011;44160;49.080;19.302;2022-09-03T12:04:02;6.65;;;1.63;;
58354;SDS011;44160;49.080;19.302;2022-09-03T12:19:15;1.67;;;1.20;;
58354;SDS011;44160;49.080;19.302;2022-09-03T12:21:47;2.38;;;1.30;;
58354;SDS011;44160;49.080;19.302;2022-09-03T12:24:13;1.58;;;1.10;;
58354;SDS011;44160;49.080;19.302;2022-09-03T12:26:40;2.80;;;1.30;;
58354;SDS011;44160;49.080;19.302;2022-09-03T12:29:16;3.10;;;1.20;;
58354;SDS011;44160;49.080;19.302;2022-09-03T12:31:45;3.80;;;1.52;;
58354;SDS011;44160;49.080;19.302;2022-09-03T12:34:14;3.05;;;1.23;;
58354;SDS011;44160;49.080;19.302;2022-09-03T12:36:59;2.10;;;1.27;;
58354;SDS011;44160;49.080;19.302;2022-09-03T12:39:26;2.35;;;1.30;;
58354;SDS011;44160;49.080;19.302;2022-09-03T12:44:26;2.30;;;1.30;;
58354;SDS011;44160;49.080;19.302;2022-09-03T12:47:00;4.82;;;1.50;;
58354;SDS011;44160;49.080;19.302;2022-09-03T12:49:32;1.92;;;1.42;;
58354;SDS011;44160;49.080;19.302;2022-09-03T12:51:59;1.20;;;1.08;;
58354;SDS011;44160;49.080;19.302;2022-09-03T12:54:26;2.47;;;1.60;;
58354;SDS011;44160;49.080;19.302;2022-09-03T12:56:54;1.90;;;1.67;;
58354;SDS011;44160;49.080;19.302;2022-09-03T12:59:21;4.35;;;1.73;;
58354;SDS011;44160;49.080;19.302;2022-09-03T13:01:49;6.18;;;1.58;;
58354;SDS011;44160;49.080;19.302;2022-09-03T13:04:18;5.10;;;1.50;;
58354;SDS011;44160;49.080;19.302;2022-09-03T13:09:13;7.18;;;1.50;;
58354;SDS011;44160;49.080;19.302;2022-09-03T13:11:40;2.17;;;1.45;;
58354;SDS011;44160;49.080;19.302;2022-09-03T13:14:10;4.63;;;1.75;;
58354;SDS011;44160;49.080;19.302;2022-09-03T13:19:08;5.75;;;2.20;;
58354;SDS011;44160;49.080;19.302;2022-09-03T13:24:06;2.58;;;1.52;;
58354;SDS011;44160;49.080;19.302;2022-09-03T13:26:38;2.78;;;1.40;;
58354;SDS011;44160;49.080;19.302;2022-09-03T13:34:48;2.92;;;1.90;;
58354;SDS011;44160;49.080;19.302;2022-09-03T13:40:02;6.25;;;1.52;;
58354;SDS011;44160;49.080;19.302;2022-09-03T13:42:35;3.83;;;1.65;;
58354;SDS011;44160;49.080;19.302;2022-09-03T13:47:43;3.58;;;1.83;;
58354;SDS011;44160;49.080;19.302;2022-09-03T13:50:30;1.90;;;1.40;;
58354;SDS011;44160;49.080;19.302;2022-09-03T13:55:30;2.83;;;1.35;;
58354;SDS011;44160;49.080;19.302;2022-09-03T13:57:58;6.70;;;1.70;;
58354;SDS011;44160;49.080;19.302;2022-09-03T14:00:28;5.22;;;2.30;;
58354;SDS011;44160;49.080;19.302;2022-09-03T14:03:11;2.65;;;1.40;;
58354;SDS011;44160;49.080;19.302;2022-09-03T14:10:52;2.85;;;1.42;;
58354;SDS011;44160;49.080;19.302;2022-09-03T14:16:15;2.53;;;1.40;;
58354;SDS011;44160;49.080;19.302;2022-09-03T14:18:53;2.03;;;1.15;;
58354;SDS011;44160;49.080;19.302;2022-09-03T14:21:33;2.47;;;1.30;;
58354;SDS011;44160;49.080;19.302;2022-09-03T14:26:56;4.13;;;1.50;;
58354;SDS011;44160;49.080;19.302;2022-09-03T14:29:28;3.65;;;1.27;;
58354;SDS011;44160;49.080;19.302;2022-09-03T14:31:58;3.28;;;1.35;;
58354;SDS011;44160;49.080;19.302;2022-09-03T14:34:32;3.38;;;1.70;;
58354;SDS011;44160;49.080;19.302;2022-09-03T14:39:33;4.50;;;2.00;;
58354;SDS011;44160;49.080;19.302;2022-09-03T15:00:16;3.45;;;1.40;;
58354;SDS011;44160;49.080;19.302;2022-09-03T15:05:25;3.95;;;1.40;;
58354;SDS011;44160;49.080;19.302;2022-09-03T15:07:54;3.80;;;1.65;;
58354;SDS011;44160;49.080;19.302;2022-09-03T15:12:51;3.80;;;1.30;;
58354;SDS011;44160;49.080;19.302;2022-09-03T15:15:32;2.70;;;1.48;;
58354;SDS011;44160;49.080;19.302;2022-09-03T15:18:08;3.35;;;1.10;;
58354;SDS011;44160;49.080;19.302;2022-09-03T15:23:15;3.42;;;1.15;;
58354;SDS011;44160;49.080;19.302;2022-09-03T15:31:00;1.65;;;1.08;;
58354;SDS011;44160;49.080;19.302;2022-09-03T15:34:04;1.88;;;1.08;;
58354;SDS011;44160;49.080;19.302;2022-09-03T15:39:14;1.73;;;1.17;;
58354;SDS011;44160;49.080;19.302;2022-09-03T15:41:45;1.75;;;1.40;;
58354;SDS011;44160;49.080;19.302;2022-09-03T15:44:14;6.70;;;1.35;;
58354;SDS011;44160;49.080;19.302;2022-09-03T15:49:16;4.00;;;1.60;;
58354;SDS011;44160;49.080;19.302;2022-09-03T15:54:47;2.40;;;1.40;;
58354;SDS011;44160;49.080;19.302;2022-09-03T15:57:25;2.17;;;1.48;;
58354;SDS011;44160;49.080;19.302;2022-09-03T16:02:33;3.17;;;1.50;;
58354;SDS011;44160;49.080;19.302;2022-09-03T16:05:07;2.97;;;1.45;;
58354;SDS011;44160;49.080;19.302;2022-09-03T16:10:34;3.10;;;1.83;;
58354;SDS011;44160;49.080;19.302;2022-09-03T16:13:13;3.38;;;1.55;;
58354;SDS011;44160;49.080;19.302;2022-09-03T16:18:26;3.45;;;1.55;;
58354;SDS011;44160;49.080;19.302;2022-09-03T16:21:08;2.20;;;1.30;;
58354;SDS011;44160;49.080;19.302;2022-09-03T16:23:42;2.65;;;1.55;;
58354;SDS011;44160;49.080;19.302;2022-09-03T16:26:14;3.58;;;1.40;;
58354;SDS011;44160;49.080;19.302;2022-09-03T16:28:48;2.75;;;1.50;;
58354;SDS011;44160;49.080;19.302;2022-09-03T16:53:58;2.60;;;1.30;;
58354;SDS011;44160;49.080;19.302;2022-09-03T16:59:05;2.80;;;1.42;;
58354;SDS011;44160;49.080;19.302;2022-09-03T17:04:24;2.30;;;1.55;;
58354;SDS011;44160;49.080;19.302;2022-09-03T17:12:23;2.55;;;1.50;;
58354;SDS011;44160;49.080;19.302;2022-09-03T17:20:12;2.03;;;1.50;;
58354;SDS011;44160;49.080;19.302;2022-09-03T17:22:55;3.28;;;1.77;;
58354;SDS011;44160;49.080;19.302;2022-09-03T17:28:16;2.10;;;1.45;;
58354;SDS011;44160;49.080;19.302;2022-09-03T17:30:48;2.53;;;1.58;;
58354;SDS011;44160;49.080;19.302;2022-09-03T17:36:04;2.50;;;1.85;;
58354;SDS011;44160;49.080;19.302;2022-09-03T17:45:57;3.72;;;1.70;;
58354;SDS011;44160;49.080;19.302;2022-09-03T17:51:00;2.35;;;1.65;;
58354;SDS011;44160;49.080;19.302;2022-09-03T17:53:31;3.45;;;1.60;;
58354;SDS011;44160;49.080;19.302;2022-09-03T17:56:08;2.97;;;2.10;;
58354;SDS011;44160;49.080;19.302;2022-09-03T17:58:38;3.92;;;1.90;;
58354;SDS011;44160;49.080;19.302;2022-09-03T18:03:40;4.07;;;2.00;;
58354;SDS011;44160;49.080;19.302;2022-09-03T18:06:10;2.85;;;1.50;;
58354;SDS011;44160;49.080;19.302;2022-09-03T18:08:50;3.10;;;1.60;;
58354;SDS011;44160;49.080;19.302;2022-09-03T18:11:18;3.35;;;2.00;;
58354;SDS011;44160;49.080;19.302;2022-09-03T18:16:32;4.30;;;2.50;;
58354;SDS011;44160;49.080;19.302;2022-09-03T18:19:01;4.78;;;1.67;;
58354;SDS011;44160;49.080;19.302;2022-09-03T18:21:28;3.28;;;1.90;;
58354;SDS011;44160;49.080;19.302;2022-09-03T18:24:27;2.90;;;1.98;;
58354;SDS011;44160;49.080;19.302;2022-09-03T18:27:26;11.05;;;7.05;;
58354;SDS011;44160;49.080;19.302;2022-09-03T18:30:12;7.60;;;4.82;;
58354;SDS011;44160;49.080;19.302;2022-09-03T18:32:58;7.50;;;5.15;;
58354;SDS011;44160;49.080;19.302;2022-09-03T18:35:44;6.70;;;4.15;;
58354;SDS011;44160;49.080;19.302;2022-09-03T18:38:30;6.30;;;4.22;;
58354;SDS011;44160;49.080;19.302;2022-09-03T18:46:51;5.13;;;3.00;;
58354;SDS011;44160;49.080;19.302;2022-09-03T18:49:40;4.47;;;2.50;;
58354;SDS011;44160;49.080;19.302;2022-09-03T18:52:32;6.68;;;3.60;;
58354;SDS011;44160;49.080;19.302;2022-09-03T19:01:32;5.65;;;3.40;;
58354;SDS011;44160;49.080;19.302;2022-09-03T19:04:20;5.18;;;3.25;;
58354;SDS011;44160;49.080;19.302;2022-09-03T19:09:55;6.05;;;3.70;;
58354;SDS011;44160;49.080;19.302;2022-09-03T19:15:35;5.88;;;3.40;;
58354;SDS011;44160;49.080;19.302;2022-09-03T19:24:05;4.75;;;3.20;;
58354;SDS011;44160;49.080;19.302;2022-09-03T19:26:57;5.05;;;3.47;;
58354;SDS011;44160;49.080;19.302;2022-09-03T19:36:12;8.25;;;3.78;;
58354;SDS011;44160;49.080;19.302;2022-09-03T19:39:10;8.80;;;3.80;;
58354;SDS011;44160;49.080;19.302;2022-09-03T19:42:32;5.85;;;3.88;;
58354;SDS011;44160;49.080;19.302;2022-09-03T19:53:57;8.33;;;4.50;;
58354;SDS011;44160;49.080;19.302;2022-09-03T19:56:42;9.95;;;3.97;;
58354;SDS011;44160;49.080;19.302;2022-09-03T19:59:28;6.15;;;4.00;;
58354;SDS011;44160;49.080;19.302;2022-09-03T20:02:17;7.68;;;4.45;;
58354;SDS011;44160;49.080;19.302;2022-09-03T20:05:01;5.38;;;3.85;;
58354;SDS011;44160;49.080;19.302;2022-09-03T20:07:50;5.55;;;3.70;;
58354;SDS011;44160;49.080;19.302;2022-09-03T20:10:37;5.97;;;4.00;;